createdAt,value
2019-01-06T00:01:49.179Z,7.10
2019-01-06T00:04:50.527Z,7.10
2019-01-06T00:07:38.772Z,7.10
2019-01-06T00:10:32.625Z,7.10
2019-01-06T00:13:17.399Z,7.00
2019-01-06T00:16:05.559Z,7.00
2019-01-06T00:18:54.573Z,7.00
2019-01-06T00:21:41.129Z,7.00
2019-01-06T00:24:32.794Z,7.00
2019-01-06T00:27:21.870Z,6.90
2019-01-06T00:30:10.392Z,6.90
2019-01-06T00:33:01.373Z,6.90
2019-01-06T00:35:49.609Z,6.90
2019-01-06T00:38:37.507Z,7.00
2019-01-06T00:41:35.624Z,6.90
2019-01-06T00:44:36.616Z,7.00
2019-01-06T00:47:17.678Z,7.00
2019-01-06T00:50:05.935Z,7.00
2019-01-06T00:52:49.875Z,7.00
2019-01-06T00:55:48.180Z,7.00
2019-01-06T00:58:43.581Z,6.90
2019-01-06T01:01:22.314Z,6.90
2019-01-06T01:04:13.661Z,6.80
2019-01-06T01:07:13.246Z,6.80
2019-01-06T01:10:11.603Z,6.80
2019-01-06T01:13:03.951Z,6.80
2019-01-06T01:15:48.521Z,6.70
2019-01-06T01:18:53.300Z,6.70
2019-01-06T01:21:45.254Z,6.70
2019-01-06T01:24:40.604Z,6.70
2019-01-06T01:27:29.868Z,6.70
2019-01-06T01:30:17.952Z,6.70
2019-01-06T01:33:06.331Z,6.70
2019-01-06T01:36:03.398Z,6.60
2019-01-06T01:38:51.128Z,6.60
2019-01-06T01:41:40.532Z,6.60
2019-01-06T01:44:28.463Z,6.70
2019-01-06T01:47:16.827Z,6.60
2019-01-06T01:50:05.096Z,6.70
2019-01-06T01:52:47.669Z,6.70
2019-01-06T01:55:36.839Z,6.70
2019-01-06T01:58:25.123Z,6.70
2019-01-06T02:01:29.488Z,6.70
2019-01-06T02:04:36.848Z,6.70
2019-01-06T02:07:29.058Z,6.70
2019-01-06T02:10:18.660Z,6.70
2019-01-06T02:13:08.050Z,6.80
2019-01-06T02:16:12.347Z,6.80
2019-01-06T02:19:04.077Z,6.80
2019-01-06T02:22:05.483Z,6.80
2019-01-06T02:25:11.364Z,6.80
2019-01-06T02:28:09.659Z,6.80
2019-01-06T02:30:57.842Z,6.80
2019-01-06T02:33:49.330Z,6.70
2019-01-06T02:36:50.500Z,6.70
2019-01-06T02:39:38.462Z,6.70
2019-01-06T02:42:26.606Z,6.70
2019-01-06T02:45:14.793Z,6.70
2019-01-06T02:48:02.777Z,6.70
2019-01-06T02:50:50.978Z,6.70
2019-01-06T02:53:39.102Z,6.70
2019-01-06T02:56:40.933Z,6.70
2019-01-06T02:59:30.145Z,6.80
2019-01-06T03:02:13.286Z,6.70
2019-01-06T03:05:21.059Z,6.70
2019-01-06T03:08:10.631Z,6.70
2019-01-06T03:11:09.338Z,6.70
2019-01-06T03:13:58.624Z,6.70
2019-01-06T03:16:48.111Z,6.60
2019-01-06T03:19:43.574Z,6.60
2019-01-06T03:22:31.619Z,6.60
2019-01-06T03:25:24.655Z,6.60
2019-01-06T03:28:26.321Z,6.60
2019-01-06T03:31:14.324Z,6.60
2019-01-06T03:34:02.595Z,6.50
2019-01-06T03:36:51.214Z,6.50
2019-01-06T03:39:39.073Z,6.50
2019-01-06T03:42:34.676Z,6.50
2019-01-06T03:45:23.133Z,6.50
2019-01-06T03:48:21.797Z,6.50
2019-01-06T03:51:12.182Z,6.50
2019-01-06T03:54:01.383Z,6.50
2019-01-06T03:56:51.351Z,6.50
2019-01-06T03:59:48.452Z,6.50
2019-01-06T04:02:37.732Z,6.50
2019-01-06T04:05:33.205Z,6.50
2019-01-06T04:08:21.559Z,6.60
2019-01-06T04:11:15.073Z,6.60
2019-01-06T04:13:58.958Z,6.60
2019-01-06T04:17:02.979Z,6.60
2019-01-06T04:20:01.304Z,6.70
2019-01-06T04:22:49.236Z,6.70
2019-01-06T04:25:37.338Z,6.60
2019-01-06T04:28:45.004Z,6.70
2019-01-06T04:31:52.494Z,6.60
2019-01-06T04:34:53.659Z,6.60
2019-01-06T04:37:55.079Z,6.60
2019-01-06T04:40:44.505Z,6.60
2019-01-06T04:43:42.542Z,6.50
2019-01-06T04:46:37.685Z,6.50
2019-01-06T04:49:25.475Z,6.50
2019-01-06T04:52:13.374Z,6.50
2019-01-06T04:55:08.816Z,6.50
2019-01-06T04:58:02.300Z,6.50
2019-01-06T05:00:50.269Z,6.50
2019-01-06T05:03:38.199Z,6.40
2019-01-06T05:06:26.799Z,6.40
2019-01-06T05:09:15.128Z,6.40
2019-01-06T05:12:03.147Z,6.40
2019-01-06T05:14:50.983Z,6.50
2019-01-06T05:17:39.148Z,6.40
2019-01-06T05:20:27.436Z,6.40
2019-01-06T05:23:15.149Z,6.40
2019-01-06T05:26:02.999Z,6.40
2019-01-06T05:28:59.630Z,6.40
2019-01-06T05:31:49.265Z,6.50
2019-01-06T05:34:56.903Z,6.40
2019-01-06T05:38:04.535Z,6.50
2019-01-06T05:40:59.787Z,6.50
2019-01-06T05:43:56.599Z,6.50
2019-01-06T05:47:01.392Z,6.50
2019-01-06T05:49:56.772Z,6.50
2019-01-06T05:52:40.403Z,6.50
2019-01-06T05:55:30.351Z,6.50
2019-01-06T05:58:15.078Z,6.50
2019-01-06T06:01:16.799Z,6.60
2019-01-06T06:04:07.622Z,6.60
2019-01-06T06:07:11.026Z,6.60
2019-01-06T06:09:54.029Z,6.60
2019-01-06T06:12:48.593Z,6.60
2019-01-06T06:15:36.655Z,6.60
2019-01-06T06:18:26.232Z,6.60
2019-01-06T06:21:19.302Z,6.60
2019-01-06T06:24:14.375Z,6.60
2019-01-06T06:27:06.370Z,6.60
2019-01-06T06:29:54.181Z,6.60
2019-01-06T06:32:54.281Z,6.50
2019-01-06T06:36:01.856Z,6.50
2019-01-06T06:38:56.023Z,6.50
2019-01-06T06:41:57.750Z,6.50
2019-01-06T06:45:02.376Z,6.50
2019-01-06T06:47:50.349Z,6.50
2019-01-06T06:50:41.800Z,6.50
2019-01-06T06:53:23.077Z,6.40
2019-01-06T06:56:11.366Z,6.40
2019-01-06T06:59:11.324Z,6.40
2019-01-06T07:02:54.833Z,6.40
2019-01-06T07:05:52.849Z,6.40
2019-01-06T07:08:42.180Z,6.40
2019-01-06T07:11:30.297Z,6.40
2019-01-06T07:14:18.280Z,6.40
2019-01-06T07:17:58.545Z,6.40
2019-01-06T07:20:51.015Z,6.40
2019-01-06T07:23:43.242Z,6.40
2019-01-06T07:26:50.772Z,6.40
2019-01-06T07:29:49.250Z,6.40
2019-01-06T07:32:44.409Z,6.30
2019-01-06T07:35:32.500Z,6.30
2019-01-06T07:38:20.340Z,6.40
2019-01-06T07:41:08.190Z,6.30
2019-01-06T07:43:53.516Z,6.30
2019-01-06T07:46:43.380Z,6.30
2019-01-06T07:49:34.449Z,6.30
2019-01-06T07:52:11.902Z,6.30
2019-01-06T07:54:59.979Z,6.30
2019-01-06T07:57:39.185Z,6.30
2019-01-06T08:00:25.720Z,6.30
2019-01-06T08:03:13.995Z,6.30
2019-01-06T08:06:15.273Z,6.30
2019-01-06T08:09:19.861Z,6.30
2019-01-06T08:12:11.935Z,6.30
2019-01-06T08:14:59.664Z,6.30
2019-01-06T08:18:04.010Z,6.30
2019-01-06T08:20:46.789Z,6.30
2019-01-06T08:23:39.090Z,6.30
2019-01-06T08:26:37.148Z,6.30
2019-01-06T08:29:38.523Z,6.30
2019-01-06T08:32:32.477Z,6.40
2019-01-06T08:35:24.740Z,6.40
2019-01-06T08:38:16.435Z,6.50
2019-01-06T08:41:14.133Z,6.60
2019-01-06T08:44:08.260Z,6.60
2019-01-06T08:47:03.462Z,6.60
2019-01-06T08:49:55.543Z,6.70
2019-01-06T08:52:40.752Z,6.70
2019-01-06T08:55:28.931Z,6.70
2019-01-06T08:58:36.320Z,6.80
2019-01-06T09:01:24.188Z,6.80
2019-01-06T09:04:12.163Z,6.80
2019-01-06T09:07:01.413Z,6.80
2019-01-06T09:09:50.813Z,6.80
2019-01-06T09:12:42.970Z,6.80
2019-01-06T09:15:28.649Z,6.90
2019-01-06T09:18:20.720Z,6.90
2019-01-06T09:21:17.611Z,6.90
2019-01-06T09:24:15.785Z,6.90
2019-01-06T09:27:00.316Z,6.90
2019-01-06T09:29:47.983Z,6.90
2019-01-06T09:32:38.591Z,6.90
2019-01-06T09:35:26.528Z,7.00
2019-01-06T09:38:14.481Z,7.00
2019-01-06T09:41:02.505Z,7.10
2019-01-06T09:43:52.164Z,7.10
2019-01-06T09:46:47.405Z,7.20
2019-01-06T09:49:54.757Z,7.30
2019-01-06T09:53:02.150Z,7.40
2019-01-06T09:56:00.122Z,7.50
2019-01-06T09:58:55.416Z,7.50
2019-01-06T10:01:43.710Z,7.60
2019-01-06T10:04:39.185Z,7.60
2019-01-06T10:07:37.405Z,7.60
2019-01-06T10:10:35.845Z,7.60
2019-01-06T10:13:37.251Z,7.60
2019-01-06T10:16:29.172Z,7.50
2019-01-06T10:19:18.443Z,7.50
2019-01-06T10:22:06.300Z,7.60
2019-01-06T10:24:55.914Z,7.60
2019-01-06T10:27:51.230Z,7.60
2019-01-06T10:30:55.899Z,7.60
2019-01-06T10:33:43.978Z,7.60
2019-01-06T10:36:31.807Z,7.70
2019-01-06T10:39:17.187Z,7.70
2019-01-06T10:42:02.868Z,7.80
2019-01-06T10:45:01.171Z,7.80
2019-01-06T10:47:49.554Z,7.90
2019-01-06T10:50:37.492Z,7.90
2019-01-06T10:53:46.652Z,7.90
2019-01-06T10:56:34.454Z,7.90
2019-01-06T10:59:22.133Z,7.90
2019-01-06T11:02:10.272Z,8.00
2019-01-06T11:05:04.401Z,8.00
2019-01-06T11:07:56.692Z,8.00
2019-01-06T11:10:46.067Z,8.10
2019-01-06T11:13:47.386Z,8.00
2019-01-06T11:16:45.615Z,8.10
2019-01-06T11:19:33.786Z,8.10
2019-01-06T11:22:21.619Z,8.10
2019-01-06T11:25:19.763Z,8.10
2019-01-06T11:28:09.042Z,8.00
2019-01-06T11:30:57.004Z,8.00
2019-01-06T11:33:49.312Z,7.90
2019-01-06T11:36:33.851Z,7.90
2019-01-06T11:39:25.047Z,7.90
2019-01-06T11:42:13.063Z,7.90
2019-01-06T11:45:01.721Z,7.90
2019-01-06T11:47:49.740Z,7.90
2019-01-06T11:50:47.938Z,7.90
2019-01-06T11:53:46.295Z,7.90
2019-01-06T11:56:34.398Z,7.90
2019-01-06T11:59:36.798Z,7.80
2019-01-06T12:02:25.027Z,7.80
2019-01-06T12:05:14.307Z,7.80
2019-01-06T12:07:59.793Z,7.80
2019-01-06T12:11:07.369Z,7.80
2019-01-06T12:13:56.674Z,7.80
2019-01-06T12:16:45.863Z,7.70
2019-01-06T12:19:47.172Z,7.80
2019-01-06T12:22:36.572Z,7.80
2019-01-06T12:25:28.740Z,7.80
2019-01-06T12:28:17.933Z,7.80
2019-01-06T12:31:16.417Z,7.80
2019-01-06T12:34:20.963Z,7.80
2019-01-06T12:37:16.273Z,7.80
2019-01-06T12:40:17.360Z,7.80
2019-01-06T12:43:05.173Z,7.80
2019-01-06T12:45:57.467Z,7.80
2019-01-06T12:48:45.480Z,7.80
2019-01-06T12:51:44.067Z,7.90
2019-01-06T12:54:31.991Z,7.90
2019-01-06T12:57:21.181Z,7.90
2019-01-06T13:00:09.394Z,7.90
2019-01-06T13:03:00.905Z,7.90
2019-01-06T13:05:49.271Z,7.90
2019-01-06T13:08:50.727Z,7.90
2019-01-06T13:11:46.115Z,7.90
2019-01-06T13:14:38.364Z,7.90
2019-01-06T13:17:34.037Z,7.90
2019-01-06T13:20:22.369Z,7.80
2019-01-06T13:23:04.568Z,7.80
2019-01-06T13:25:49.262Z,7.80
2019-01-06T13:28:30.787Z,7.80
2019-01-06T13:31:22.935Z,7.80
2019-01-06T13:34:13.578Z,7.80
2019-01-06T13:37:17.958Z,7.80
2019-01-06T13:40:10.203Z,7.80
2019-01-06T13:42:54.697Z,7.70
2019-01-06T13:45:44.027Z,7.80
2019-01-06T13:48:36.188Z,7.70
2019-01-06T13:51:23.755Z,7.70
2019-01-06T13:54:29.952Z,7.70
2019-01-06T13:57:17.411Z,7.70
2019-01-06T14:00:07.503Z,7.60
2019-01-06T14:03:01.981Z,7.60
2019-01-06T14:05:56.877Z,7.60
2019-01-06T14:08:44.691Z,7.50
2019-01-06T14:11:36.921Z,7.50
2019-01-06T14:14:38.521Z,7.50
2019-01-06T14:17:26.706Z,7.50
2019-01-06T14:20:28.314Z,7.50
2019-01-06T14:23:16.611Z,7.50
2019-01-06T14:26:12.964Z,7.60
2019-01-06T14:29:15.000Z,7.60
2019-01-06T14:32:03.211Z,7.60
2019-01-06T14:34:55.527Z,7.60
2019-01-06T14:37:56.924Z,7.50
2019-01-06T14:41:01.229Z,7.40
2019-01-06T14:43:56.374Z,7.40
2019-01-06T14:46:44.382Z,7.40
2019-01-06T14:49:32.382Z,7.40
2019-01-06T14:52:29.568Z,7.30
2019-01-06T14:55:24.811Z,7.30
2019-01-06T14:58:26.245Z,7.30
2019-01-06T15:01:15.530Z,7.20
2019-01-06T15:04:10.686Z,7.20
2019-01-06T15:07:06.246Z,7.20
2019-01-06T15:09:53.249Z,7.20
2019-01-06T15:12:56.819Z,7.20
2019-01-06T15:16:04.515Z,7.20
2019-01-06T15:18:56.825Z,7.20
2019-01-06T15:21:44.897Z,7.20
2019-01-06T15:24:44.371Z,7.20
2019-01-06T15:27:33.694Z,7.10
2019-01-06T15:30:29.435Z,7.10
2019-01-06T15:33:33.839Z,7.10
2019-01-06T15:36:26.096Z,7.10
2019-01-06T15:39:15.742Z,7.10
2019-01-06T15:42:04.177Z,7.00
2019-01-06T15:45:08.582Z,7.00
2019-01-06T15:48:09.975Z,7.00
2019-01-06T15:50:56.957Z,7.00
2019-01-06T15:53:55.778Z,7.00
2019-01-06T15:56:43.534Z,7.10
2019-01-06T15:59:41.994Z,7.00
2019-01-06T16:02:29.827Z,7.00
2019-01-06T16:05:35.020Z,7.00
2019-01-06T16:08:27.351Z,7.00
2019-01-06T16:11:16.932Z,7.00
2019-01-06T16:14:06.188Z,7.00
2019-01-06T16:17:00.997Z,6.90
2019-01-06T16:19:53.574Z,6.90
2019-01-06T16:22:48.816Z,6.90
2019-01-06T16:25:36.678Z,6.90
2019-01-06T16:28:26.404Z,6.80
2019-01-06T16:31:15.617Z,6.80
2019-01-06T16:34:17.112Z,6.70
2019-01-06T16:37:15.426Z,6.70
2019-01-06T16:40:04.887Z,6.70
2019-01-06T16:42:56.956Z,6.70
2019-01-06T16:45:49.928Z,6.80
2019-01-06T16:48:37.878Z,6.70
2019-01-06T16:51:26.937Z,6.70
2019-01-06T16:54:14.889Z,6.70
2019-01-06T16:57:03.126Z,6.60
2019-01-06T16:59:54.237Z,6.60
2019-01-06T17:02:42.174Z,6.60
2019-01-06T17:05:46.519Z,6.60
2019-01-06T17:08:31.113Z,6.60
2019-01-06T17:11:20.682Z,6.50
2019-01-06T17:14:09.977Z,6.60
2019-01-06T17:16:53.154Z,6.60
2019-01-06T17:19:37.256Z,6.60
2019-01-06T17:22:25.489Z,6.60
2019-01-06T17:25:17.492Z,6.60
2019-01-06T17:28:25.254Z,6.60
2019-01-06T17:31:21.849Z,6.60
2019-01-06T17:34:11.182Z,6.60
2019-01-06T17:36:58.987Z,6.60
2019-01-06T17:40:06.449Z,6.60
2019-01-06T17:42:54.277Z,6.50
2019-01-06T17:45:42.427Z,6.50
2019-01-06T17:48:34.444Z,6.50
2019-01-06T17:51:23.802Z,6.50
2019-01-06T17:54:19.174Z,6.50
2019-01-06T17:57:08.435Z,6.50
2019-01-06T17:59:56.543Z,6.50
2019-01-06T18:02:46.025Z,6.50
2019-01-06T18:05:37.055Z,6.60
2019-01-06T18:08:32.676Z,6.70
2019-01-06T18:11:40.406Z,6.60
2019-01-06T18:14:22.354Z,6.60
2019-01-06T18:17:14.334Z,6.50
2019-01-06T18:20:10.919Z,6.50
2019-01-06T18:22:59.268Z,6.50
2019-01-06T18:25:48.556Z,6.50
2019-01-06T18:28:36.519Z,6.50
2019-01-06T18:31:24.489Z,6.50
2019-01-06T18:34:12.797Z,6.50
2019-01-06T18:37:01.000Z,6.50
2019-01-06T18:40:02.611Z,6.40
2019-01-06T18:42:54.853Z,6.40
2019-01-06T18:45:44.659Z,6.60
2019-01-06T18:48:36.538Z,6.60
2019-01-06T18:51:40.683Z,6.50
2019-01-06T18:54:39.343Z,6.40
2019-01-06T18:57:33.195Z,6.40
2019-01-06T19:00:21.592Z,6.40
2019-01-06T19:03:09.635Z,6.40
2019-01-06T19:05:58.923Z,6.50
2019-01-06T19:08:47.092Z,6.50
2019-01-06T19:11:46.000Z,6.40
2019-01-06T19:14:38.937Z,6.40
2019-01-06T19:17:28.194Z,6.40
2019-01-06T19:20:11.869Z,6.40
2019-01-06T19:23:18.171Z,6.40
2019-01-06T19:26:04.066Z,6.30
2019-01-06T19:28:56.319Z,6.30
2019-01-06T19:31:48.542Z,6.30
2019-01-06T19:34:37.909Z,6.30
2019-01-06T19:37:38.501Z,6.30
2019-01-06T19:40:33.712Z,6.30
2019-01-06T19:43:29.277Z,6.20
2019-01-06T19:46:21.752Z,6.20
2019-01-06T19:49:10.096Z,6.10
2019-01-06T19:51:57.417Z,6.10
2019-01-06T19:54:46.707Z,6.00
2019-01-06T19:57:47.953Z,6.00
2019-01-06T20:00:37.233Z,5.90
2019-01-06T20:03:29.322Z,5.80
2019-01-06T20:06:23.087Z,5.70
2019-01-06T20:09:11.303Z,5.70
2019-01-06T20:12:06.402Z,5.60
2019-01-06T20:14:54.739Z,5.50
2019-01-06T20:17:41.912Z,5.40
2019-01-06T20:20:43.392Z,5.30
2019-01-06T20:23:39.032Z,5.20
2019-01-06T20:26:37.395Z,5.10
2019-01-06T20:29:42.009Z,5.00
2019-01-06T20:32:31.214Z,5.00
2019-01-06T20:35:19.387Z,4.90
2019-01-06T20:38:21.210Z,4.90
2019-01-06T20:41:09.300Z,4.80
2019-01-06T20:43:58.494Z,4.60
2019-01-06T20:46:54.713Z,4.60
2019-01-06T20:49:53.116Z,4.60
2019-01-06T20:52:41.694Z,4.50
2019-01-06T20:55:46.159Z,4.50
2019-01-06T20:58:35.737Z,4.50
2019-01-06T21:01:23.566Z,4.30
2019-01-06T21:04:25.156Z,4.30
2019-01-06T21:07:14.511Z,4.20
2019-01-06T21:10:06.550Z,4.20
2019-01-06T21:13:04.732Z,4.20
2019-01-06T21:16:03.976Z,4.20
2019-01-06T21:19:02.080Z,4.10
2019-01-06T21:21:51.103Z,4.00
2019-01-06T21:24:38.940Z,4.00
2019-01-06T21:27:27.506Z,3.90
2019-01-06T21:30:16.775Z,3.90
2019-01-06T21:32:59.611Z,4.00
2019-01-06T21:35:47.679Z,3.90
2019-01-06T21:38:48.866Z,3.90
2019-01-06T21:41:43.260Z,3.80
2019-01-06T21:44:47.808Z,3.80
2019-01-06T21:47:48.954Z,3.80
2019-01-06T21:50:43.447Z,3.70
2019-01-06T21:53:33.333Z,3.70
2019-01-06T21:56:28.734Z,3.70
2019-01-06T21:59:30.472Z,3.60
2019-01-06T22:02:22.590Z,3.60
2019-01-06T22:05:10.581Z,3.50
2019-01-06T22:07:52.896Z,3.70
2019-01-06T22:10:44.117Z,3.60
2019-01-06T22:13:36.317Z,3.60
2019-01-06T22:16:18.512Z,3.60
2019-01-06T22:19:08.544Z,3.60
2019-01-06T22:21:57.860Z,3.60
2019-01-06T22:24:56.379Z,3.60
2019-01-06T22:27:44.688Z,3.60
2019-01-06T22:30:33.903Z,3.60
2019-01-06T22:33:21.762Z,3.70
2019-01-06T22:36:10.972Z,3.80
2019-01-06T22:39:07.882Z,3.90
2019-01-06T22:41:58.741Z,3.90
2019-01-06T22:44:46.802Z,3.90
2019-01-06T22:47:34.933Z,3.90
2019-01-06T22:50:19.689Z,4.10
2019-01-06T22:53:07.753Z,4.00
2019-01-06T22:56:01.691Z,4.10
2019-01-06T22:58:50.902Z,4.10
2019-01-06T23:01:46.059Z,4.20
2019-01-06T23:04:34.168Z,4.30
2019-01-06T23:07:23.882Z,4.40
2019-01-06T23:10:23.631Z,4.40
2019-01-06T23:13:12.936Z,4.40
2019-01-06T23:15:53.607Z,4.50
2019-01-06T23:18:43.153Z,4.50
2019-01-06T23:21:47.709Z,4.50
2019-01-06T23:24:49.176Z,4.60
2019-01-06T23:27:38.388Z,4.60
2019-01-06T23:30:22.745Z,4.60
2019-01-06T23:33:10.972Z,4.70
2019-01-06T23:36:00.592Z,4.70
2019-01-06T23:38:59.192Z,4.70
2019-01-06T23:41:49.073Z,4.70
2019-01-06T23:44:53.459Z,4.80
2019-01-06T23:47:54.318Z,4.80
2019-01-06T23:50:44.562Z,4.90
2019-01-06T23:53:32.690Z,4.90
2019-01-06T23:56:20.649Z,5.00
2019-01-06T23:59:12.942Z,5.00
